Time;durP1;ratioP1;P1;durP2;ratioP2;P2;SDS_P1;SDS_P2;PMS_P1;PMS_P2;Temp;Humidity;BMP_temperature;BMP_pressure;BME280_temperature;BME280_humidity;BME280_pressure;Samples;Min_cycle;Max_cycle;Signal;HPM_P1;HPM_P2
2022/06/22 00:00:38;;;;;;;14.75;7.60;;;;;;;19.21;100.00;94636.19;5077655;28;20047;-65
2022/06/22 00:03:08;;;;;;;11.05;7.95;;;;;;;19.24;100.00;94635.59;5079339;28;20044;-65
2022/06/22 00:05:43;;;;;;;12.65;8.13;;;;;;;19.27;100.00;94640.28;5078280;28;20048;-66
2022/06/22 00:08:34;;;;;;;14.77;8.57;;;;;;;19.29;100.00;94648.72;5077730;28;20131;-65
2022/06/22 00:11:15;;;;;;;14.25;8.23;;;;;;;19.25;100.00;94647.72;5074432;28;20044;-65
2022/06/22 00:13:50;;;;;;;16.02;9.15;;;;;;;19.26;100.00;94644.00;5060522;28;20623;-65
2022/06/22 00:16:23;;;;;;;28.33;9.93;;;;;;;19.24;100.00;94635.59;5080086;28;21024;-65
2022/06/22 00:18:52;;;;;;;13.73;8.93;;;;;;;19.26;100.00;94644.00;5079181;28;20040;-65
2022/06/22 00:21:29;;;;;;;12.18;8.82;;;;;;;19.34;100.00;94641.75;5077710;28;20894;-65
2022/06/22 00:24:00;;;;;;;13.95;8.20;;;;;;;19.36;100.00;94643.06;5076490;28;20059;-65
2022/06/22 00:26:32;;;;;;;15.43;8.93;;;;;;;19.38;100.00;94648.06;5077785;28;20048;-64
2022/06/22 00:29:04;;;;;;;13.60;7.97;;;;;;;19.42;100.00;94646.38;5078691;28;20050;-65
2022/06/22 00:31:56;;;;;;;12.93;9.27;;;;;;;19.36;100.00;94644.91;5074894;28;20052;-64
2022/06/22 00:34:27;;;;;;;14.25;9.75;;;;;;;19.19;100.00;94638.31;5076943;28;20036;-65
2022/06/22 00:37:12;;;;;;;15.27;8.70;;;;;;;19.08;100.00;94631.63;5078155;28;20052;-64
2022/06/22 00:39:54;;;;;;;18.05;8.98;;;;;;;18.89;100.00;94639.59;5058313;28;20410;-65
2022/06/22 00:42:41;;;;;;;14.45;10.35;;;;;;;18.93;100.00;94653.00;5075999;28;20593;-65
2022/06/22 00:45:21;;;;;;;21.80;9.68;;;;;;;18.96;100.00;94645.31;5079695;28;20676;-65
2022/06/22 00:48:10;;;;;;;19.92;9.63;;;;;;;18.97;100.00;94651.34;5075788;28;20044;-66
2022/06/22 00:50:44;;;;;;;13.75;8.90;;;;;;;18.90;100.00;94636.66;5059278;28;20055;-66
2022/06/22 00:53:32;;;;;;;21.27;9.55;;;;;;;18.99;100.00;94638.66;5077713;28;20311;-65
2022/06/22 00:56:05;;;;;;;14.85;10.40;;;;;;;18.96;100.00;94623.38;5074194;28;20059;-65
2022/06/22 00:58:41;;;;;;;14.98;10.15;;;;;;;18.98;100.00;94637.06;5074073;28;20060;-66
2022/06/22 01:01:24;;;;;;;18.55;9.88;;;;;;;19.07;100.00;94640.66;5078570;28;20052;-66
2022/06/22 01:03:59;;;;;;;21.45;10.15;;;;;;;19.05;100.00;94648.03;5074617;28;20048;-66
2022/06/22 01:06:38;;;;;;;16.90;9.85;;;;;;;19.01;100.00;94662.91;5080160;28;20040;-65
2022/06/22 01:09:33;;;;;;;15.63;9.35;;;;;;;18.97;100.00;94656.63;5074418;28;20050;-65
2022/06/22 01:12:16;;;;;;;13.65;9.43;;;;;;;18.94;100.00;94659.84;5059061;28;20057;-64
2022/06/22 01:15:05;;;;;;;14.60;9.10;;;;;;;18.83;100.00;94646.78;5076398;28;20072;-65
2022/06/22 01:17:34;;;;;;;15.25;9.80;;;;;;;18.79;100.00;94645.78;5077556;28;20044;-66
2022/06/22 01:20:25;;;;;;;16.17;10.45;;;;;;;18.73;100.00;94639.03;5057366;28;20036;-65
2022/06/22 01:23:12;;;;;;;12.63;10.57;;;;;;;18.69;100.00;94635.38;5060119;28;20536;-65
2022/06/22 01:25:55;;;;;;;17.98;10.25;;;;;;;18.66;100.00;94635.97;5075111;28;20043;-65
2022/06/22 01:28:24;;;;;;;13.43;10.40;;;;;;;18.64;100.00;94633.59;5077396;28;20032;-65
2022/06/22 01:30:55;;;;;;;12.38;10.70;;;;;;;18.60;100.00;94631.81;5075597;28;20052;-65
2022/06/22 01:33:34;;;;;;;13.80;9.40;;;;;;;18.61;100.00;94623.63;5076655;28;20055;-65
2022/06/22 01:36:07;;;;;;;19.65;12.20;;;;;;;18.63;100.00;94632.03;5076190;28;20044;-65
2022/06/22 01:38:38;;;;;;;15.52;11.25;;;;;;;18.60;100.00;94627.34;5080877;28;20049;-65
2022/06/22 01:41:23;;;;;;;16.73;11.55;;;;;;;18.65;100.00;94629.88;5078003;28;20036;-65
2022/06/22 01:44:02;;;;;;;16.23;10.68;;;;;;;18.66;100.00;94630.69;5076707;28;20028;-65
2022/06/22 01:47:02;;;;;;;17.75;10.30;;;;;;;18.62;100.00;94624.38;5073463;28;20059;-65
2022/06/22 01:49:38;;;;;;;16.83;10.60;;;;;;;18.59;100.00;94619.72;5076401;28;20059;-65
2022/06/22 01:52:14;;;;;;;16.30;10.85;;;;;;;18.53;100.00;94611.88;5080199;28;20044;-65
2022/06/22 01:54:50;;;;;;;13.50;10.07;;;;;;;18.53;100.00;94616.38;5082601;28;20047;-66
2022/06/22 01:57:31;;;;;;;15.27;10.85;;;;;;;18.51;100.00;94619.28;5079911;28;20043;-65
2022/06/22 02:00:13;;;;;;;18.80;11.40;;;;;;;18.46;100.00;94616.72;5080799;28;20052;-65
2022/06/22 02:03:06;;;;;;;16.30;11.10;;;;;;;18.38;100.00;94619.19;5058920;28;20064;-65
2022/06/22 02:09:13;;;;;;;19.93;11.17;;;;;;;18.15;100.00;94616.34;5080519;28;20054;-65
2022/06/22 02:11:47;;;;;;;16.85;11.07;;;;;;;18.09;100.00;94618.25;5082022;28;21040;-66
2022/06/22 02:14:25;;;;;;;16.73;11.45;;;;;;;18.04;100.00;94610.44;5080519;28;20481;-65
2022/06/22 02:16:57;;;;;;;20.10;11.32;;;;;;;17.95;100.00;94606.84;5078664;28;20051;-66
2022/06/22 02:19:25;;;;;;;15.20;11.77;;;;;;;17.84;100.00;94600.09;5079701;28;20608;-66
2022/06/22 02:21:54;;;;;;;18.88;11.73;;;;;;;17.88;100.00;94606.38;5083061;28;20051;-66
2022/06/22 02:24:34;;;;;;;20.02;11.48;;;;;;;17.90;100.00;94609.56;5079257;28;20043;-66
2022/06/22 02:27:10;;;;;;;18.23;12.48;;;;;;;17.92;100.00;94602.16;5080209;28;20040;-66
2022/06/22 02:29:38;;;;;;;16.73;11.23;;;;;;;17.88;100.00;94606.38;5077275;28;20052;-66
2022/06/22 02:32:11;;;;;;;20.30;11.93;;;;;;;17.86;100.00;94608.53;5081071;28;20556;-66
2022/06/22 02:34:41;;;;;;;16.90;12.18;;;;;;;17.86;100.00;94608.53;5079820;28;20032;-66
2022/06/22 02:37:10;;;;;;;20.00;11.88;;;;;;;17.89;100.00;94618.50;5061470;28;20040;-66
2022/06/22 02:39:46;;;;;;;17.42;11.23;;;;;;;17.93;100.00;94615.03;5075797;28;20530;-66
2022/06/22 02:45:01;;;;;;;14.70;11.02;;;;;;;17.86;100.00;94619.06;5080412;28;20024;-66
2022/06/22 02:47:44;;;;;;;16.05;11.18;;;;;;;17.85;100.00;94623.56;5079162;28;20044;-66
2022/06/22 02:50:17;;;;;;;;;;;;;;;17.84;100.00;94621.16;5081178;28;20129;-66
2022/06/22 02:52:52;;;;;;;15.52;11.50;;;;;;;17.85;100.00;94622.75;5079777;28;20593;-67
2022/06/22 02:55:23;;;;;;;20.20;12.45;;;;;;;17.81;100.00;94605.91;5083473;28;20044;-66
2022/06/22 02:57:53;;;;;;;16.30;11.30;;;;;;;17.86;100.00;94619.06;5079446;28;20047;-66
2022/06/22 03:00:27;;;;;;;18.20;11.70;;;;;;;17.86;100.00;94613.78;5079761;28;20818;-66
2022/06/22 03:03:06;;;;;;;18.30;12.45;;;;;;;17.89;100.00;94616.66;5081349;28;20048;-66
2022/06/22 03:05:34;;;;;;;22.80;12.52;;;;;;;17.86;100.00;94608.53;5082442;28;20085;-66
2022/06/22 03:08:04;;;;;;;21.35;12.88;;;;;;;17.99;100.00;94625.50;5079245;28;20564;-66
2022/06/22 03:10:35;;;;;;;19.00;12.50;;;;;;;18.03;100.00;94619.38;5097427;28;20083;-66
2022/06/22 03:13:02;;;;;;;22.35;13.13;;;;;;;18.08;100.00;94614.06;5079450;28;20040;-66
2022/06/22 03:15:34;;;;;;;17.33;11.52;;;;;;;18.08;100.00;94621.19;5083126;28;20083;-66
2022/06/22 03:18:03;;;;;;;17.63;12.20;;;;;;;18.04;100.00;94610.44;5076343;28;20048;-66
2022/06/22 03:20:48;;;;;;;15.75;12.18;;;;;;;18.16;100.00;94617.91;5079506;28;20036;-66
2022/06/22 03:23:36;;;;;;;15.02;11.90;;;;;;;18.25;100.00;94618.06;5077798;28;20040;-66
2022/06/22 03:26:18;;;;;;;14.48;11.40;;;;;;;18.30;100.00;94607.44;5079519;28;20048;-66
2022/06/22 03:28:54;;;;;;;14.93;11.50;;;;;;;18.26;100.00;94601.19;5076881;28;20043;-66
2022/06/22 03:31:26;;;;;;;15.60;11.95;;;;;;;18.36;100.00;94593.13;5079594;28;20047;-65
2022/06/22 03:34:02;;;;;;;17.15;12.00;;;;;;;18.42;100.00;94605.19;5078342;28;20135;-66
2022/06/22 03:36:37;;;;;;;20.48;11.80;;;;;;;18.47;100.00;94615.63;5060258;28;20595;-66
2022/06/22 03:39:07;;;;;;;16.17;11.10;;;;;;;18.52;100.00;94617.41;5076946;28;20052;-66
2022/06/22 03:41:42;;;;;;;17.70;12.20;;;;;;;18.51;100.00;94616.66;5080064;28;20052;-65
2022/06/22 03:44:14;;;;;;;18.42;12.65;;;;;;;18.62;100.00;94619.13;5091917;28;20036;-66
2022/06/22 03:46:44;;;;;;;19.88;13.25;;;;;;;18.70;100.00;94629.03;5078702;28;20040;-66
2022/06/22 03:49:23;;;;;;;15.90;11.52;;;;;;;18.71;100.00;94627.97;5058529;28;20051;-66
2022/06/22 03:52:02;;;;;;;20.00;12.38;;;;;;;18.61;100.00;94622.84;5078609;28;20048;-66
2022/06/22 03:54:39;;;;;;;15.32;12.02;;;;;;;18.67;100.00;94626.97;5078796;28;20059;-66
2022/06/22 03:57:11;;;;;;;15.40;11.77;;;;;;;18.61;100.00;94636.03;5079829;28;20055;-67
2022/06/22 04:00:49;;;;;;;19.83;13.27;;;;;;;18.62;100.00;94641.03;5093934;27;20566;-66
2022/06/22 04:03:18;;;;;;;23.52;13.52;;;;;;;18.63;100.00;94647.84;5103792;28;21349;-67
2022/06/22 04:05:55;;;;;;;18.27;12.48;;;;;;;18.56;100.00;94649.28;5103033;28;20047;-67
2022/06/22 04:08:32;;;;;;;24.35;12.07;;;;;;;18.65;100.00;94663.38;5102801;28;20067;-67
2022/06/22 04:11:05;;;;;;;26.30;13.30;;;;;;;18.63;100.00;94663.66;5101567;28;20065;-67
2022/06/22 04:15:24;;;;;;;24.23;14.20;;;;;;;18.65;100.00;94656.25;5089114;27;20124;-67
2022/06/22 04:17:57;;;;;;;18.05;13.52;;;;;;;18.60;100.00;94642.34;5071374;28;20044;-67
2022/06/22 04:20:52;;;;;;;20.25;14.40;;;;;;;18.68;100.00;94644.38;5076015;28;20050;-67
2022/06/22 04:23:37;;;;;;;20.80;12.07;;;;;;;18.85;100.00;94644.66;5072295;28;20036;-66
2022/06/22 04:26:12;;;;;;;16.17;13.02;;;;;;;19.00;100.00;94629.69;5074594;28;20544;-68
2022/06/22 04:28:41;;;;;;;;;;;;;;;19.12;100.00;94632.63;5071866;28;20051;-67
2022/06/22 04:31:17;;;;;;;20.17;13.10;;;;;;;19.16;100.00;94633.63;5076046;28;19934;-67
2022/06/22 04:34:11;;;;;;;18.45;12.70;;;;;;;19.32;100.00;94631.53;5072349;28;20033;-68
2022/06/22 04:36:51;;;;;;;18.98;12.45;;;;;;;19.46;100.00;94631.53;5070851;28;20056;-68
2022/06/22 04:39:32;;;;;;;16.67;12.00;;;;;;;19.54;100.00;94628.22;5072357;28;20067;-67
2022/06/22 04:42:02;;;;;;;17.67;11.48;;;;;;;19.60;100.00;94632.31;5076531;28;20040;-67
2022/06/22 04:44:37;;;;;;;17.60;13.05;;;;;;;19.72;100.00;94633.72;5073205;28;20047;-67
2022/06/22 04:47:19;;;;;;;21.70;12.38;;;;;;;19.75;100.00;94638.44;5075402;28;20525;-67
2022/06/22 04:49:50;;;;;;;16.40;12.45;;;;;;;19.91;100.00;94642.34;5072025;28;20180;-67
2022/06/22 04:52:24;;;;;;;20.92;12.90;;;;;;;19.97;100.00;94646.47;5073524;28;21912;-67
2022/06/22 04:54:57;;;;;;;16.40;12.38;;;;;;;19.99;100.00;94649.59;5104980;27;20056;-67
2022/06/22 04:57:29;;;;;;;19.33;12.48;;;;;;;20.09;100.00;94642.53;5076729;28;20044;-67
2022/06/22 04:59:56;;;;;;;21.40;12.25;;;;;;;20.12;100.00;94641.94;5073477;28;20093;-67
2022/06/22 05:02:31;;;;;;;18.50;11.70;;;;;;;20.17;100.00;94649.78;5073503;28;20032;-67
2022/06/22 05:05:09;;;;;;;23.45;13.40;;;;;;;20.29;100.00;94652.69;5075528;28;20032;-68
2022/06/22 05:07:51;;;;;;;18.42;12.95;;;;;;;20.38;100.00;94666.00;5072909;28;20044;-67
2022/06/22 05:10:28;;;;;;;17.33;13.45;;;;;;;20.38;100.00;94656.22;5078705;28;20044;-68
2022/06/22 05:13:02;;;;;;;26.45;13.82;;;;;;;20.49;100.00;94667.38;5074046;28;20105;-67
2022/06/22 05:15:34;;;;;;;23.17;13.27;;;;;;;20.57;100.00;94669.28;5075061;28;20437;-67
2022/06/22 05:18:09;;;;;;;15.77;13.23;;;;;;;20.73;100.00;94661.84;5079594;28;20048;-67
2022/06/22 05:20:47;;;;;;;16.80;13.20;;;;;;;20.96;100.00;94667.16;5077725;28;20127;-67
2022/06/22 05:23:17;;;;;;;17.92;12.52;;;;;;;21.13;100.00;94669.91;5076151;28;20612;-67
2022/06/22 05:25:47;;;;;;;19.63;13.80;;;;;;;21.27;100.00;94677.03;5060308;28;20056;-67
2022/06/22 05:28:21;;;;;;;16.30;12.35;;;;;;;21.27;100.00;94669.09;5057552;28;20956;-67
2022/06/22 05:30:59;;;;;;;19.63;13.32;;;;;;;21.45;100.00;94665.47;5062024;28;20044;-67
2022/06/22 05:33:28;;;;;;;20.77;12.93;;;;;;;21.58;100.00;94664.59;5062482;28;20036;-67
2022/06/22 05:36:10;;;;;;;15.68;12.57;;;;;;;21.72;100.00;94658.44;5060394;28;20052;-66
2022/06/22 05:38:42;;;;;;;18.13;11.68;;;;;;;21.81;100.00;94659.25;5057387;28;20056;-66
2022/06/22 05:41:12;;;;;;;24.10;12.82;;;;;;;21.84;100.00;94656.00;5055799;28;20040;-67
2022/06/22 05:43:40;;;;;;;16.15;11.90;;;;;;;21.82;100.00;94658.16;5060253;28;20083;-67
2022/06/22 05:46:10;;;;;;;17.67;12.18;;;;;;;21.93;100.00;94656.81;5068321;28;20094;-67
2022/06/22 05:48:42;;;;;;;17.00;12.43;;;;;;;21.89;100.00;94657.72;5060795;28;20076;-67
2022/06/22 05:51:45;;;;;;;14.45;12.40;;;;;;;21.98;100.00;94671.00;5062643;28;20134;-67
2022/06/22 05:54:21;;;;;;;17.38;12.52;;;;;;;22.01;100.00;94660.56;5057240;28;20053;-67
2022/06/22 05:57:08;;;;;;;15.98;12.52;;;;;;;22.20;100.00;94662.97;5063876;28;20052;-67
2022/06/22 05:59:34;;;;;;;20.38;12.82;;;;;;;22.31;100.00;94685.50;5058440;28;20644;-67
2022/06/22 06:02:18;;;;;;;18.23;12.93;;;;;;;22.25;100.00;94684.03;5060738;28;20951;-67
2022/06/22 06:04:55;;;;;;;16.60;12.27;;;;;;;22.36;100.00;94681.13;5056868;28;20135;-67
2022/06/22 06:07:43;;;;;;;16.35;11.88;;;;;;;22.36;100.00;94670.50;5064928;28;20053;-68
2022/06/22 06:10:20;;;;;;;17.38;11.95;;;;;;;22.51;100.00;94664.78;5057654;28;20041;-68
2022/06/22 06:13:01;;;;;;;18.27;11.85;;;;;;;22.62;100.00;94658.06;5059428;28;20044;-67
2022/06/22 06:15:34;;;;;;;21.08;10.75;;;;;;;22.91;100.00;94665.41;5056696;28;20198;-67
2022/06/22 06:18:04;;;;;;;14.07;11.48;;;;;;;23.11;100.00;94670.44;5053398;28;20484;-67
2022/06/22 06:20:43;;;;;;;16.05;10.82;;;;;;;23.22;100.00;94669.00;5057375;28;20056;-70
2022/06/22 06:23:15;;;;;;;13.07;10.18;;;;;;;23.38;100.00;94683.38;5060231;28;20044;-69
2022/06/22 06:28:53;;;;;;;15.65;10.80;;;;;;;23.64;100.00;94685.97;5061397;28;20039;-70
2022/06/22 06:31:32;;;;;;;18.60;10.05;;;;;;;23.87;100.00;94671.69;5054089;28;20053;-67
2022/06/22 06:34:00;;;;;;;19.02;11.73;;;;;;;24.07;99.79;94665.66;5059435;28;20654;-66
2022/06/22 06:36:44;;;;;;;16.08;10.10;;;;;;;24.23;99.24;94673.88;5056387;28;20695;-66
2022/06/22 06:39:20;;;;;;;17.35;11.18;;;;;;;24.40;97.84;94662.34;5057328;28;20044;-70
2022/06/22 06:42:04;;;;;;;20.85;10.98;;;;;;;24.52;95.89;94659.75;5081419;27;20725;-70
2022/06/22 06:44:37;;;;;;;15.23;10.63;;;;;;;24.64;96.06;94671.63;5052757;28;20119;-69
2022/06/22 06:47:12;;;;;;;25.02;11.10;;;;;;;24.47;95.40;94667.94;5052229;28;20044;-70
2022/06/22 06:50:14;;;;;;;17.15;11.30;;;;;;;24.46;95.92;94654.97;5054359;28;20032;-70
2022/06/22 06:52:46;;;;;;;15.07;10.45;;;;;;;24.67;96.73;94660.31;5058392;28;20072;-70
2022/06/22 06:55:14;;;;;;;16.00;10.35;;;;;;;24.73;94.83;94669.69;5063260;28;20043;-71
2022/06/22 06:58:01;;;;;;;14.27;11.63;;;;;;;24.75;93.79;94667.47;5055234;28;20048;-71
2022/06/22 07:00:30;;;;;;;16.20;10.38;;;;;;;24.72;94.55;94668.91;5060689;28;20041;-71
2022/06/22 07:02:58;;;;;;;14.50;11.35;;;;;;;24.79;95.04;94652.38;5059981;28;20033;-71
2022/06/22 07:05:29;;;;;;;11.88;10.50;;;;;;;24.86;93.84;94644.66;5054925;28;20135;-72
2022/06/22 07:08:15;;;;;;;21.30;10.88;;;;;;;25.02;93.90;94654.72;5052402;28;20043;-71
2022/06/22 07:11:13;;;;;;;18.48;9.65;;;;;;;25.02;93.99;94657.38;5060655;28;20043;-71
2022/06/22 07:13:54;;;;;;;20.52;12.25;;;;;;;25.15;92.92;94653.66;5056898;28;20041;-72
2022/06/22 07:16:25;;;;;;;13.70;10.75;;;;;;;25.25;92.82;94658.63;5056505;28;20529;-71
2022/06/22 07:18:58;;;;;;;22.58;11.35;;;;;;;25.17;91.35;94656.78;5054643;28;20033;-71
2022/06/22 07:21:35;;;;;;;14.93;9.98;;;;;;;25.20;90.84;94664.13;5057875;28;20790;-71
2022/06/22 07:24:20;;;;;;;20.17;10.68;;;;;;;25.35;90.09;94668.88;5055208;28;20037;-71
2022/06/22 07:27:16;;;;;;;14.02;10.45;;;;;;;25.33;89.88;94665.72;5055672;28;20036;-72
2022/06/22 07:29:50;;;;;;;12.13;9.38;;;;;;;25.36;89.97;94665.09;5051343;28;20314;-71
2022/06/22 07:32:40;;;;;;;13.30;10.18;;;;;;;25.31;88.82;94657.28;5059544;28;20082;-70
2022/06/22 07:35:17;;;;;;;16.75;10.32;;;;;;;25.45;88.67;94656.22;5054583;28;20033;-71
2022/06/22 07:37:58;;;;;;;14.20;10.60;;;;;;;25.55;89.04;94650.47;5060100;28;20048;-71
2022/06/22 07:40:27;;;;;;;20.27;10.85;;;;;;;25.87;90.35;94653.41;5053627;28;20126;-71
2022/06/22 07:42:56;;;;;;;15.25;9.60;;;;;;;25.87;88.18;94650.72;5058287;28;20048;-71
2022/06/22 07:45:25;;;;;;;19.35;11.52;;;;;;;25.93;87.62;94655.56;5056525;28;20056;-71
2022/06/22 07:48:01;;;;;;;14.18;10.15;;;;;;;25.97;85.27;94658.34;5052265;28;20037;-71
2022/06/22 07:50:41;;;;;;;14.68;9.35;;;;;;;25.97;84.39;94661.00;5055809;28;20049;-71
2022/06/22 07:53:22;;;;;;;14.45;10.80;;;;;;;26.06;83.75;94672.34;5088223;28;20044;-71
2022/06/22 07:56:06;;;;;;;15.65;10.88;;;;;;;26.18;83.47;94665.44;5054239;28;20129;-71
2022/06/22 07:58:49;;;;;;;15.30;11.77;;;;;;;26.38;84.28;94672.56;5054039;28;20032;-71
2022/06/22 08:01:23;;;;;;;21.73;11.43;;;;;;;26.61;80.74;94682.78;5053447;28;20685;-71
2022/06/22 08:03:57;;;;;;;12.25;10.00;;;;;;;26.55;82.73;94673.44;5054930;28;20462;-70
2022/06/22 08:06:30;;;;;;;19.25;12.00;;;;;;;26.85;80.86;94674.72;5062211;28;20667;-71
2022/06/22 08:09:06;;;;;;;14.65;11.88;;;;;;;27.08;79.28;94685.69;5092044;27;20045;-72
2022/06/22 08:11:38;;;;;;;17.48;10.35;;;;;;;27.15;77.55;94663.69;5057862;28;20040;-71
2022/06/22 08:14:19;;;;;;;17.40;10.57;;;;;;;26.98;77.18;94674.69;5058646;28;20044;-71
2022/06/22 08:16:51;;;;;;;16.42;10.75;;;;;;;26.77;79.79;94672.97;5057795;28;20052;-71
2022/06/22 08:19:19;;;;;;;18.55;11.88;;;;;;;26.78;80.22;94666.50;5057410;28;20040;-70
2022/06/22 08:21:49;;;;;;;19.38;12.23;;;;;;;26.88;79.33;94660.69;5062096;28;20052;-72
2022/06/22 08:24:18;;;;;;;14.80;11.02;;;;;;;27.09;78.96;94673.09;5057105;28;20040;-71
2022/06/22 08:26:47;;;;;;;18.45;12.05;;;;;;;27.38;78.84;94665.88;5059825;28;20624;-72
2022/06/22 08:29:18;;;;;;;18.77;13.15;;;;;;;27.17;73.73;94661.47;5056951;28;20798;-71
2022/06/22 08:31:54;;;;;;;21.23;12.73;;;;;;;27.15;73.11;94663.69;5063021;28;20049;-71
2022/06/22 08:34:53;;;;;;;16.65;12.15;;;;;;;27.09;75.30;94659.72;5061271;28;20052;-71
2022/06/22 08:37:41;;;;;;;24.95;13.07;;;;;;;27.23;73.96;94660.09;5058337;28;20437;-71
2022/06/22 08:40:16;;;;;;;18.35;13.15;;;;;;;27.40;74.03;94652.94;5055500;28;20044;-71
2022/06/22 08:42:44;;;;;;;22.48;13.27;;;;;;;27.67;73.54;94650.53;5059600;28;20907;-71
2022/06/22 08:45:13;;;;;;;17.15;12.43;;;;;;;27.76;71.76;94643.13;5059984;28;20043;-71
2022/06/22 08:47:59;;;;;;;22.00;12.48;;;;;;;27.73;72.22;94649.16;5061630;28;20037;-71
2022/06/22 08:50:44;;;;;;;17.20;13.07;;;;;;;27.57;72.58;94641.91;5074604;28;20043;-71
2022/06/22 08:53:32;;;;;;;24.73;12.95;;;;;;;27.73;72.04;94638.47;5061217;28;20102;-71
2022/06/22 08:56:14;;;;;;;20.65;13.63;;;;;;;27.79;71.31;94631.75;5039018;28;20037;-71
2022/06/22 08:58:47;;;;;;;21.75;12.90;;;;;;;27.71;72.65;94640.72;5058175;28;20046;-71
2022/06/22 09:01:40;;;;;;;26.88;12.70;;;;;;;27.85;72.68;94628.44;5060530;28;20089;-71
2022/06/22 09:04:13;;;;;;;17.60;12.27;;;;;;;28.02;71.17;94624.69;5063362;28;20041;-71
2022/06/22 09:06:59;;;;;;;14.95;11.77;;;;;;;27.95;72.00;94629.88;5044571;28;20525;-71
2022/06/22 09:10:04;;;;;;;26.85;13.90;;;;;;;28.05;69.44;94619.75;5066177;28;20537;-71
2022/06/22 09:13:05;;;;;;;17.80;12.30;;;;;;;28.12;70.25;94611.88;5057435;28;20169;-71
2022/06/22 09:16:02;;;;;;;29.33;13.35;;;;;;;27.96;69.44;94612.66;5093699;27;20028;-71
2022/06/22 09:19:07;;;;;;;25.05;14.23;;;;;;;28.22;65.99;94622.06;5061587;28;20033;-71
2022/06/22 09:21:34;;;;;;;17.90;13.15;;;;;;;27.96;68.68;94615.34;5062131;28;20472;-71
2022/06/22 09:24:27;;;;;;;16.38;10.88;;;;;;;27.85;66.78;94616.97;5061663;28;20078;-71
2022/06/22 09:27:00;;;;;;;20.58;12.40;;;;;;;27.89;69.00;94631.19;5013989;28;20736;-71
2022/06/22 09:29:45;;;;;;;17.35;12.40;;;;;;;28.07;67.61;94598.75;5061485;28;20063;-71
2022/06/22 09:32:26;;;;;;;16.60;9.82;;;;;;;28.21;63.62;94609.78;5055814;28;20081;-71
2022/06/22 09:35:31;;;;;;;14.18;10.93;;;;;;;28.25;64.08;94621.34;5060376;28;20032;-71
2022/06/22 09:38:13;;;;;;;11.18;7.55;;;;;;;28.13;63.85;94606.19;4999053;28;20044;-71
2022/06/22 09:41:11;;;;;;;17.75;11.20;;;;;;;27.82;63.58;94589.03;4998750;28;20056;-72
2022/06/22 09:44:09;;;;;;;18.27;10.15;;;;;;;27.56;64.34;94581.50;5049006;28;20044;-76
2022/06/22 09:47:14;;;;;;;19.42;12.50;;;;;;;27.67;66.36;94629.16;5060342;28;20175;-72
2022/06/22 09:49:47;;;;;;;17.95;11.35;;;;;;;27.67;64.22;94634.50;5056781;28;20457;-72
2022/06/22 09:52:38;;;;;;;22.40;14.30;;;;;;;27.93;67.29;94621.41;5063837;28;20037;-74
2022/06/22 09:58:44;;;;;;;14.35;10.45;;;;;;;27.94;64.13;94633.66;5063604;28;20043;-74
2022/06/22 10:01:25;;;;;;;16.70;10.00;;;;;;;27.75;66.01;94631.66;5060976;28;20058;-72
2022/06/22 10:03:52;;;;;;;16.92;10.57;;;;;;;27.73;67.04;94633.09;5058542;28;21533;-72
2022/06/22 10:06:52;;;;;;;23.02;11.13;;;;;;;27.52;64.70;94642.16;5058227;28;20174;-73
2022/06/22 10:09:33;;;;;;;;;;;;;;;27.32;64.10;94645.84;5060862;28;20071;-73
2022/06/22 10:12:37;;;;;;;19.20;10.63;;;;;;;27.26;65.38;94648.78;5056487;28;20014;-72
2022/06/22 10:15:07;;;;;;;15.60;11.30;;;;;;;27.18;66.77;94644.31;5034120;28;20569;-73
2022/06/22 10:17:52;;;;;;;16.45;11.10;;;;;;;27.37;67.78;94643.72;5060553;28;20624;-72
2022/06/22 10:20:52;;;;;;;13.23;9.60;;;;;;;27.65;67.55;94648.97;5059203;28;20094;-71
2022/06/22 10:23:47;;;;;;;20.02;11.55;;;;;;;27.52;66.79;94666.22;5061067;28;20040;-73
2022/06/22 10:26:47;;;;;;;17.27;10.60;;;;;;;27.73;67.18;94660.66;5057303;28;20040;-72
2022/06/22 10:29:39;;;;;;;15.70;10.38;;;;;;;28.14;66.85;94641.75;5061713;28;20032;-72
2022/06/22 10:32:28;;;;;;;12.20;9.50;;;;;;;28.11;64.50;94642.44;5091021;27;20035;-72
2022/06/22 10:35:17;;;;;;;19.80;9.90;;;;;;;28.21;63.26;94641.91;5065067;28;20032;-77
2022/06/22 10:38:11;;;;;;;13.75;10.85;;;;;;;27.94;64.08;94639.00;5057314;28;20564;-77
2022/06/22 10:47:03;;;;;;;20.23;11.05;;;;;;;28.09;64.60;94628.63;5058057;28;20552;-77
2022/06/22 10:50:24;;;;;;;13.77;10.38;;;;;;;28.46;65.31;94631.75;5057639;28;20158;-77
2022/06/22 10:53:26;;;;;;;18.88;10.18;;;;;;;28.47;62.23;94640.56;4993643;28;20076;-77
2022/06/22 10:56:31;;;;;;;16.27;9.30;;;;;;;28.74;60.06;94631.63;5076117;28;20067;-77
2022/06/22 10:59:20;;;;;;;19.50;9.98;;;;;;;29.02;59.77;94635.97;5052909;28;20114;-76
2022/06/22 11:03:08;;;;;;;23.60;9.63;;;;;;;28.82;58.76;94626.41;5058601;28;20044;-77
2022/06/22 11:06:06;;;;;;;21.02;10.13;;;;;;;28.92;58.32;94641.94;4966992;28;21456;-77
2022/06/22 11:08:51;;;;;;;22.08;10.00;;;;;;;28.78;59.26;94589.56;5084275;27;20545;-76
2022/06/22 11:11:32;;;;;;;11.00;8.13;;;;;;;29.09;58.27;94609.31;5057461;28;20076;-76
2022/06/22 11:14:21;;;;;;;13.77;9.88;;;;;;;29.41;57.79;94619.88;5054442;28;20631;-77
2022/06/22 11:17:23;;;;;;;22.23;10.35;;;;;;;29.52;56.18;94614.69;5055109;28;20133;-76
2022/06/22 11:19:58;;;;;;;12.25;9.25;;;;;;;29.53;55.63;94638.50;5052440;28;20724;-77
2022/06/22 11:22:45;;;;;;;12.07;8.13;;;;;;;29.04;55.33;94606.91;5050170;28;20052;-78
2022/06/22 11:31:37;;;;;;;11.27;8.98;;;;;;;28.81;58.52;94608.75;5053609;28;20044;-77
2022/06/22 11:34:22;;;;;;;14.07;10.02;;;;;;;28.75;59.44;94621.66;5058843;28;20041;-78
2022/06/22 11:37:12;;;;;;;21.63;10.27;;;;;;;28.48;62.32;94618.00;5055372;28;20044;-77
2022/06/22 11:40:37;;;;;;;13.75;10.65;;;;;;;28.17;61.32;94611.63;5063558;28;20045;-77
2022/06/22 11:52:06;;;;;;;;;;;;;;;;;;;;;
2022/06/22 12:04:22;;;;;;;;;;;;;;;;;;;;;
2022/06/22 12:07:24;;;;;;;16.60;10.60;;;;;;;30.02;61.06;94614.75;4953182;28;20050;-81
2022/06/22 12:10:18;;;;;;;14.90;8.77;;;;;;;29.96;57.10;94616.19;5001418;28;20130;-81
2022/06/22 12:12:53;;;;;;;21.17;8.88;;;;;;;29.73;53.95;94622.34;5010552;28;20038;-80
2022/06/22 12:15:42;;;;;;;20.10;9.75;;;;;;;29.78;55.71;94619.34;4989564;28;20236;-74
2022/06/22 12:18:27;;;;;;;18.80;8.25;;;;;;;30.06;56.19;94626.31;4978674;28;20042;-76
2022/06/22 12:21:09;;;;;;;10.50;7.75;;;;;;;29.74;56.50;94616.63;4999234;28;20050;-73
2022/06/22 12:24:03;;;;;;;15.48;9.18;;;;;;;29.46;56.39;94635.69;4981787;28;20918;-77
2022/06/22 12:27:12;;;;;;;14.50;8.75;;;;;;;29.35;56.83;94611.34;4997366;28;20518;-73
2022/06/22 12:30:13;;;;;;;18.60;9.20;;;;;;;29.21;57.03;94616.47;4985532;28;20056;-74
2022/06/22 12:32:48;;;;;;;16.30;10.70;;;;;;;29.42;56.99;94610.69;5035186;28;20041;-70
2022/06/22 12:35:39;;;;;;;16.48;8.95;;;;;;;29.75;54.17;94625.47;5055007;28;20043;-69
2022/06/22 12:38:15;;;;;;;20.23;8.32;;;;;;;30.06;52.95;94632.47;5063193;28;20043;-69
2022/06/22 12:40:57;;;;;;;10.77;8.38;;;;;;;30.04;52.67;94633.97;5060662;28;20130;-70
2022/06/22 12:43:50;;;;;;;22.23;9.95;;;;;;;30.03;53.09;94605.56;5060401;28;20734;-70
2022/06/22 12:46:57;;;;;;;24.65;9.55;;;;;;;29.64;53.85;94619.09;5094211;27;20110;-71
2022/06/22 12:49:49;;;;;;;22.08;7.70;;;;;;;29.28;53.51;94605.06;5061450;28;20037;-70
2022/06/22 12:52:41;;;;;;;12.98;7.50;;;;;;;28.77;55.46;94593.41;5062405;28;20143;-68
2022/06/22 12:55:13;;;;;;;13.43;7.93;;;;;;;28.63;54.86;94590.44;5058237;28;20159;-71
2022/06/22 12:57:51;;;;;;;10.18;7.18;;;;;;;28.74;53.09;94596.00;5062785;28;20059;-69
2022/06/22 13:00:21;;;;;;;16.25;7.82;;;;;;;29.35;53.72;94586.41;5060016;28;21493;-69
2022/06/22 13:02:51;;;;;;;10.27;7.10;;;;;;;29.86;52.21;94604.94;5062557;28;20774;-69
2022/06/22 13:05:22;;;;;;;12.70;7.63;;;;;;;30.59;52.67;94599.44;5065225;28;20046;-69